Main page
METAR-TAF:

METAR-TAF

Airports :

Odiham, England

RAF Odiham

latitude: 51-14N, longitude: 000-57W, elevation: 123 m

Current weather observation

The report was made 1 hour and 21 minutes ago, at 00:50 UTC
Wind 4 kt from the Northwest
Temperature 12°C
Humidity 88%
Pressure 995 hPa
Visibility 10 km or more
Overcast at a height of 1400 ft

METAR: EGVO 290050Z 32004KT 9999 OVC014 12/10 Q0995 GRN NOSIG

Time: 03:11 (02:11 UTC)

Forecast

The report was made 3 hours and 28 minutes ago, at 22:43 UTC
Forecast valid from 29 at 00 UTC to 29 at 12 UTC
Wind 8 kt from the North/Northeast
Visibility 10 km or more
Broken clouds at a height of 1000 ft
Probability 30% :
Temporary
from 29 at 00 UTC to 29 at 12 UTC
Few clouds at a height of 1000 ft
Broken clouds at a height of 1500 ft

TAF: EGVO 282243Z 2900/2912 03008KT 9999 BKN010 PROB30 TEMPO 2900/2912 FEW010 BKN015

Weather observations and forecasts of more than 4000 airports (METAR and TAF reports).

The available stations are represented by yellow and red dots on the map.

Hover mouse over dot to see the name of the station.

Then click to see weather observations and forecasts.

To change the map : click on the green buttons with a black cross to zoom in, on the green button with a dash to zoom out, or on the green arrows for adjacent maps.


METAR-TAF: